createdAt,value
2018-02-18T00:00:27.274Z,99.99
2018-02-18T00:01:42.561Z,99.99
2018-02-18T00:02:57.393Z,99.99
2018-02-18T00:04:12.387Z,99.99
2018-02-18T00:05:27.361Z,99.99
2018-02-18T00:06:42.357Z,99.99
2018-02-18T00:07:57.807Z,99.99
2018-02-18T00:09:12.663Z,99.99
2018-02-18T00:10:27.657Z,99.99
2018-02-18T00:11:42.407Z,99.99
2018-02-18T00:12:57.648Z,99.99
2018-02-18T00:14:12.143Z,99.99
2018-02-18T00:15:26.923Z,99.99
2018-02-18T00:16:41.731Z,99.99
2018-02-18T00:17:56.133Z,99.99
2018-02-18T00:19:10.833Z,99.99
2018-02-18T00:20:26.119Z,99.99
2018-02-18T00:21:40.586Z,99.99
2018-02-18T00:22:55.381Z,99.99
2018-02-18T00:24:10.133Z,99.99
2018-02-18T00:25:24.611Z,99.99
2018-02-18T00:26:40.235Z,99.99
2018-02-18T00:27:54.682Z,99.99
2018-02-18T00:29:09.523Z,99.99
2018-02-18T00:30:23.418Z,99.99
2018-02-18T00:31:38.127Z,99.99
2018-02-18T00:32:52.305Z,99.99
2018-02-18T00:34:07.402Z,99.99
2018-02-18T00:35:21.885Z,99.99
2018-02-18T00:36:36.827Z,99.99
2018-02-18T00:37:51.952Z,99.99
2018-02-18T00:39:06.750Z,99.99
2018-02-18T00:40:21.516Z,99.99
2018-02-18T00:41:35.889Z,99.99
2018-02-18T00:42:51.217Z,99.99
2018-02-18T00:44:05.736Z,99.99
2018-02-18T00:45:20.576Z,99.99
2018-02-18T00:46:35.533Z,99.99
2018-02-18T00:47:49.968Z,99.99
2018-02-18T00:49:04.783Z,99.99
2018-02-18T00:50:18.626Z,99.99
2018-02-18T00:51:33.324Z,99.99
2018-02-18T00:52:48.012Z,99.99
2018-02-18T00:54:03.050Z,99.99
2018-02-18T00:55:18.161Z,99.99
2018-02-18T00:56:32.628Z,99.99
2018-02-18T00:57:47.360Z,99.99
2018-02-18T00:59:02.024Z,99.99
2018-02-18T01:00:17.106Z,99.99
2018-02-18T01:01:31.521Z,99.99
2018-02-18T01:02:45.685Z,99.99
2018-02-18T01:04:00.716Z,99.99
2018-02-18T01:05:14.928Z,99.99
2018-02-18T01:06:29.643Z,99.99
2018-02-18T01:07:43.918Z,99.99
2018-02-18T01:08:58.575Z,99.99
2018-02-18T01:10:13.973Z,99.99
2018-02-18T01:11:28.487Z,99.99
2018-02-18T01:12:43.451Z,99.99
2018-02-18T01:13:58.172Z,99.99
2018-02-18T01:15:12.499Z,99.99
2018-02-18T01:16:27.778Z,99.99
2018-02-18T01:17:42.823Z,99.99
2018-02-18T01:18:57.764Z,99.99
2018-02-18T01:20:12.636Z,99.99
2018-02-18T01:21:26.793Z,99.99
2018-02-18T01:22:41.795Z,99.99
2018-02-18T01:23:56.758Z,99.99
2018-02-18T01:25:11.416Z,99.99
2018-02-18T01:26:26.094Z,99.99
2018-02-18T01:27:40.956Z,99.99
2018-02-18T01:28:55.389Z,99.99
2018-02-18T01:30:10.348Z,99.99
2018-02-18T01:31:25.065Z,99.99
2018-02-18T01:32:39.225Z,99.99
2018-02-18T01:33:53.927Z,99.99
2018-02-18T01:35:08.875Z,99.99
2018-02-18T01:36:23.377Z,99.99
2018-02-18T01:37:37.793Z,99.99
2018-02-18T01:38:52.432Z,99.99
2018-02-18T01:40:06.512Z,99.99
2018-02-18T01:41:20.976Z,99.99
2018-02-18T01:42:37.588Z,99.99
2018-02-18T01:43:52.006Z,99.99
2018-02-18T01:45:06.423Z,99.99
2018-02-18T01:46:21.017Z,99.99
2018-02-18T01:47:35.991Z,99.99
2018-02-18T01:48:50.661Z,99.99
2018-02-18T01:50:04.774Z,99.99
2018-02-18T01:51:19.417Z,99.99
2018-02-18T01:52:34.098Z,99.99
2018-02-18T01:53:49.171Z,99.99
2018-02-18T01:55:04.045Z,99.99
2018-02-18T01:56:19.098Z,99.99
2018-02-18T01:57:34.030Z,99.99
2018-02-18T01:58:49.021Z,99.99
2018-02-18T02:00:03.781Z,99.99
2018-02-18T02:01:18.754Z,99.99
2018-02-18T02:02:33.581Z,99.99
2018-02-18T02:03:48.514Z,99.99
2018-02-18T02:05:03.238Z,99.99
2018-02-18T02:06:17.253Z,99.99
2018-02-18T02:07:31.986Z,99.99
2018-02-18T02:08:46.658Z,99.99
2018-02-18T02:10:01.931Z,99.99
2018-02-18T02:11:16.928Z,99.99
2018-02-18T02:12:31.964Z,99.99
2018-02-18T02:13:47.497Z,99.99
2018-02-18T02:15:01.894Z,99.99
2018-02-18T02:16:16.674Z,99.99
2018-02-18T02:17:31.374Z,99.99
2018-02-18T02:18:46.074Z,99.99
2018-02-18T02:20:00.766Z,99.99
2018-02-18T02:21:15.534Z,99.99
2018-02-18T02:22:29.929Z,99.99
2018-02-18T02:23:44.922Z,99.99
2018-02-18T02:24:59.912Z,99.99
2018-02-18T02:26:14.763Z,99.99
2018-02-18T02:27:29.244Z,99.99
2018-02-18T02:28:44.364Z,99.99
2018-02-18T02:29:58.994Z,99.99
2018-02-18T02:31:14.244Z,99.99
2018-02-18T02:32:28.845Z,99.99
2018-02-18T02:33:43.544Z,99.99
2018-02-18T02:34:57.958Z,99.99
2018-02-18T02:36:12.376Z,99.99
2018-02-18T02:37:27.952Z,99.99
2018-02-18T02:38:43.352Z,99.99
2018-02-18T02:39:57.750Z,99.99
2018-02-18T02:41:12.680Z,99.99
2018-02-18T02:42:27.136Z,99.99
2018-02-18T02:43:42.631Z,99.99
2018-02-18T02:44:57.313Z,99.99
2018-02-18T02:46:12.222Z,99.99
2018-02-18T02:47:27.803Z,99.99
2018-02-18T02:48:42.459Z,99.99
2018-02-18T02:49:57.860Z,99.99
2018-02-18T02:51:12.271Z,99.99
2018-02-18T02:52:27.259Z,99.99
2018-02-18T02:53:42.028Z,99.99
2018-02-18T02:54:56.652Z,99.99
2018-02-18T02:56:11.110Z,99.99
2018-02-18T02:57:26.593Z,99.99
2018-02-18T02:58:41.796Z,99.99
2018-02-18T02:59:56.740Z,99.99
2018-02-18T03:01:11.138Z,99.99
2018-02-18T03:02:26.087Z,99.99
2018-02-18T03:03:41.121Z,99.99
2018-02-18T03:04:55.264Z,99.99
2018-02-18T03:06:09.673Z,99.99
2018-02-18T03:07:24.069Z,99.99
2018-02-18T03:08:39.167Z,99.99
2018-02-18T03:09:54.128Z,99.99
2018-02-18T03:11:09.082Z,99.99
2018-02-18T03:12:23.755Z,99.99
2018-02-18T03:13:38.641Z,99.99
2018-02-18T03:14:53.709Z,99.99
2018-02-18T03:16:08.374Z,99.99
2018-02-18T03:17:22.780Z,99.99
2018-02-18T03:18:37.615Z,99.99
2018-02-18T03:19:53.057Z,99.99
2018-02-18T03:21:07.506Z,99.99
2018-02-18T03:22:22.187Z,99.99
2018-02-18T03:23:37.498Z,99.99
2018-02-18T03:24:52.193Z,99.99
2018-02-18T03:26:07.407Z,99.99
2018-02-18T03:27:22.131Z,99.99
2018-02-18T03:28:37.075Z,99.99
2018-02-18T03:29:51.503Z,99.99
2018-02-18T03:31:06.209Z,99.99
2018-02-18T03:32:21.461Z,99.99
2018-02-18T03:33:36.573Z,99.99
2018-02-18T03:34:51.216Z,99.99
2018-02-18T03:36:05.376Z,99.99
2018-02-18T03:37:19.526Z,99.99
2018-02-18T03:38:34.221Z,99.99
2018-02-18T03:39:49.456Z,99.99
2018-02-18T03:41:03.833Z,99.99
2018-02-18T03:42:18.487Z,99.99
2018-02-18T03:43:32.842Z,99.99
2018-02-18T03:44:47.784Z,99.99
2018-02-18T03:46:02.590Z,99.99
2018-02-18T03:47:17.514Z,99.99
2018-02-18T03:48:32.198Z,99.99
2018-02-18T03:49:46.403Z,99.99
2018-02-18T03:51:00.588Z,99.99
2018-02-18T03:52:41.698Z,99.99
2018-02-18T03:53:56.467Z,99.99
2018-02-18T03:55:10.906Z,99.99
2018-02-18T03:56:25.299Z,99.99
2018-02-18T03:57:39.952Z,99.99
2018-02-18T03:58:54.389Z,99.99
2018-02-18T04:00:09.060Z,99.99
2018-02-18T04:01:23.717Z,99.99
2018-02-18T04:02:38.812Z,99.99
2018-02-18T04:03:53.787Z,99.99
2018-02-18T04:05:08.235Z,99.99
2018-02-18T04:06:23.209Z,99.99
2018-02-18T04:07:37.892Z,99.99
2018-02-18T04:08:53.128Z,99.99
2018-02-18T04:10:08.579Z,99.99
2018-02-18T04:11:23.441Z,99.99
2018-02-18T04:12:38.139Z,99.99
2018-02-18T04:13:52.784Z,99.99
2018-02-18T04:15:07.602Z,99.99
2018-02-18T04:16:22.834Z,99.99
2018-02-18T04:17:37.242Z,99.99
2018-02-18T04:18:52.228Z,99.99
2018-02-18T04:20:07.030Z,99.99
2018-02-18T04:21:22.041Z,99.99
2018-02-18T04:22:36.490Z,99.99
2018-02-18T04:23:51.136Z,99.99
2018-02-18T04:25:06.779Z,99.99
2018-02-18T04:26:21.980Z,99.99
2018-02-18T04:27:36.922Z,99.99
2018-02-18T04:28:51.567Z,99.99
2018-02-18T04:30:06.278Z,99.99
2018-02-18T04:31:21.789Z,99.99
2018-02-18T04:32:35.966Z,99.99
2018-02-18T04:33:50.643Z,99.99
2018-02-18T04:35:05.368Z,99.99
2018-02-18T04:36:20.443Z,99.99
2018-02-18T04:37:35.696Z,99.99
2018-02-18T04:38:50.909Z,99.99
2018-02-18T04:40:05.574Z,99.99
2018-02-18T04:41:20.806Z,99.99
2018-02-18T04:42:35.217Z,99.99
2018-02-18T04:43:49.860Z,99.99
2018-02-18T04:47:17.846Z,99.99
2018-02-18T04:48:32.798Z,99.99
2018-02-18T04:49:48.063Z,99.99
2018-02-18T04:51:03.055Z,99.99
2018-02-18T04:52:17.470Z,99.99
2018-02-18T04:53:32.390Z,99.99
2018-02-18T04:54:46.523Z,99.99
2018-02-18T04:56:01.564Z,99.99
2018-02-18T04:57:16.049Z,99.99
2018-02-18T04:58:53.915Z,99.99
2018-02-18T05:00:08.865Z,99.99
2018-02-18T05:01:23.840Z,99.99
2018-02-18T05:02:38.488Z,99.99
2018-02-18T05:03:53.004Z,99.99
2018-02-18T05:05:07.417Z,99.99
2018-02-18T05:06:22.298Z,99.99
2018-02-18T05:07:36.511Z,99.99
2018-02-18T05:08:51.159Z,99.99
2018-02-18T05:10:05.956Z,99.99
2018-02-18T05:11:21.012Z,99.99
2018-02-18T05:12:36.081Z,99.99
2018-02-18T05:13:50.800Z,99.99
2018-02-18T05:15:05.211Z,99.99
2018-02-18T05:16:19.686Z,99.99
2018-02-18T05:17:34.560Z,99.99
2018-02-18T05:18:49.526Z,99.99
2018-02-18T05:20:04.439Z,99.99
2018-02-18T05:21:19.136Z,99.99
2018-02-18T05:22:33.754Z,99.99
2018-02-18T05:23:48.175Z,99.99
2018-02-18T05:25:03.633Z,99.99
2018-02-18T05:26:18.335Z,99.99
2018-02-18T05:27:32.861Z,99.99
2018-02-18T05:28:47.604Z,99.99
2018-02-18T05:30:02.071Z,99.99
2018-02-18T05:31:17.376Z,99.99
2018-02-18T05:32:31.928Z,99.99
2018-02-18T05:33:46.365Z,99.99
2018-02-18T05:35:01.062Z,99.99
2018-02-18T05:36:16.006Z,99.99
2018-02-18T05:37:30.583Z,99.99
2018-02-18T05:38:45.262Z,99.99
2018-02-18T05:39:59.979Z,99.99
2018-02-18T05:41:14.417Z,99.99
2018-02-18T05:42:29.221Z,99.99
2018-02-18T05:43:44.917Z,99.99
2018-02-18T05:44:59.896Z,99.99
2018-02-18T05:46:14.802Z,99.99
2018-02-18T05:47:29.926Z,99.99
2018-02-18T05:48:45.232Z,99.99
2018-02-18T05:50:00.209Z,99.99
2018-02-18T05:51:14.382Z,99.99
2018-02-18T05:52:29.318Z,99.99
2018-02-18T05:53:43.726Z,99.99
2018-02-18T05:54:58.458Z,99.99
2018-02-18T05:56:12.937Z,99.99
2018-02-18T05:57:27.049Z,99.99
2018-02-18T05:58:42.064Z,99.99
2018-02-18T05:59:57.303Z,99.99
2018-02-18T06:01:11.808Z,99.99
2018-02-18T06:02:26.570Z,99.99
2018-02-18T06:03:42.167Z,99.99
2018-02-18T06:04:56.891Z,99.99
2018-02-18T06:06:11.751Z,99.99
2018-02-18T06:07:26.717Z,99.99
2018-02-18T06:08:41.212Z,99.99
2018-02-18T06:09:55.658Z,99.99
2018-02-18T06:11:10.380Z,99.99
2018-02-18T06:12:25.382Z,99.99
2018-02-18T06:13:40.644Z,99.99
2018-02-18T06:14:55.370Z,99.99
2018-02-18T06:16:09.998Z,99.99
2018-02-18T06:17:24.435Z,99.99
2018-02-18T06:18:39.711Z,99.99
2018-02-18T06:19:54.652Z,99.99
2018-02-18T06:21:09.591Z,99.99
2018-02-18T06:22:24.329Z,99.99
2018-02-18T06:23:39.494Z,99.99
2018-02-18T06:24:53.614Z,99.99
2018-02-18T06:26:08.495Z,99.99
2018-02-18T06:27:23.498Z,99.99
2018-02-18T06:28:38.256Z,99.99
2018-02-18T06:29:52.933Z,99.99
2018-02-18T06:31:07.871Z,99.99
2018-02-18T06:32:22.369Z,99.99
2018-02-18T06:33:37.581Z,99.99
2018-02-18T06:34:51.965Z,99.99
2018-02-18T06:36:06.800Z,99.99
2018-02-18T06:37:20.931Z,99.99
2018-02-18T06:38:35.454Z,99.99
2018-02-18T06:39:50.195Z,99.99
2018-02-18T06:41:05.162Z,99.99
2018-02-18T06:42:19.583Z,99.99
2018-02-18T06:43:34.342Z,99.99
2018-02-18T06:44:49.506Z,99.99
2018-02-18T06:46:03.940Z,99.99
2018-02-18T06:47:19.190Z,99.99
2018-02-18T06:48:34.195Z,99.99
2018-02-18T06:49:49.131Z,99.99
2018-02-18T06:51:03.690Z,99.99
2018-02-18T06:52:18.800Z,99.99
2018-02-18T06:53:33.656Z,99.99
2018-02-18T06:54:48.760Z,99.99
2018-02-18T06:56:03.741Z,99.99
2018-02-18T06:57:18.664Z,99.99
2018-02-18T06:58:33.378Z,99.99
2018-02-18T06:59:47.794Z,99.99
2018-02-18T07:01:01.926Z,99.99
2018-02-18T07:02:16.598Z,99.99
2018-02-18T07:03:30.760Z,99.99
2018-02-18T07:04:45.774Z,99.99
2018-02-18T07:06:00.155Z,99.99
2018-02-18T07:07:14.597Z,99.99
2018-02-18T07:08:29.743Z,99.99
2018-02-18T07:09:44.528Z,99.99
2018-02-18T07:10:58.973Z,99.99
2018-02-18T07:12:13.708Z,99.99
2018-02-18T07:13:27.824Z,99.99
2018-02-18T07:14:42.832Z,99.99
2018-02-18T07:15:57.224Z,99.99
2018-02-18T07:17:12.605Z,99.99
2018-02-18T07:18:27.625Z,99.99
2018-02-18T07:19:42.352Z,99.99
2018-02-18T07:20:56.614Z,99.99
2018-02-18T07:22:11.821Z,99.99
2018-02-18T07:23:27.126Z,99.99
2018-02-18T07:24:41.796Z,99.99
2018-02-18T07:25:56.682Z,99.99
2018-02-18T07:27:11.092Z,99.99
2018-02-18T07:28:25.750Z,99.99
2018-02-18T07:29:40.718Z,99.99
2018-02-18T07:30:55.912Z,99.99
2018-02-18T07:32:09.509Z,99.99
2018-02-18T07:33:24.849Z,99.99
2018-02-18T07:34:39.270Z,99.99
2018-02-18T07:35:54.208Z,99.99
2018-02-18T07:37:09.200Z,99.99
2018-02-18T07:38:24.159Z,99.99
2018-02-18T07:39:39.331Z,99.99
2018-02-18T07:41:31.682Z,99.99
2018-02-18T07:42:46.658Z,99.99
2018-02-18T07:44:01.604Z,99.99
2018-02-18T07:45:15.788Z,99.99
2018-02-18T07:46:30.960Z,99.99
2018-02-18T07:47:45.686Z,99.99
2018-02-18T07:49:00.684Z,99.99
2018-02-18T07:50:15.261Z,99.99
2018-02-18T07:51:30.243Z,99.99
2018-02-18T07:52:45.153Z,99.99
2018-02-18T07:53:59.717Z,99.99
2018-02-18T07:55:15.218Z,99.99
2018-02-18T07:56:30.498Z,99.99
2018-02-18T07:57:45.542Z,99.99
2018-02-18T07:59:00.964Z,99.99
2018-02-18T08:00:15.694Z,99.99
2018-02-18T08:01:31.207Z,99.99
2018-02-18T08:02:46.191Z,99.99
2018-02-18T08:04:01.151Z,99.99
2018-02-18T08:05:16.379Z,99.99
2018-02-18T08:06:31.871Z,99.99
2018-02-18T08:07:46.825Z,99.99
2018-02-18T08:09:01.329Z,99.99
2018-02-18T08:10:16.016Z,99.99
2018-02-18T08:11:31.288Z,99.99
2018-02-18T08:12:46.255Z,99.99
2018-02-18T08:14:01.514Z,99.99
2018-02-18T08:15:16.429Z,99.99
2018-02-18T08:16:30.468Z,99.99
2018-02-18T08:17:45.095Z,99.99
2018-02-18T08:18:59.937Z,99.99
2018-02-18T08:20:14.369Z,99.99
2018-02-18T08:21:28.918Z,99.99
2018-02-18T08:22:43.774Z,99.99
2018-02-18T08:23:59.265Z,99.99
2018-02-18T08:25:14.522Z,99.99
2018-02-18T08:26:29.021Z,99.99
2018-02-18T08:27:43.588Z,99.99
2018-02-18T08:28:58.629Z,99.99
2018-02-18T08:30:13.496Z,99.99
2018-02-18T08:31:28.431Z,99.99
2018-02-18T08:32:44.223Z,99.99
2018-02-18T08:33:58.616Z,99.99
2018-02-18T08:35:12.827Z,99.99
2018-02-18T08:36:27.637Z,99.99
2018-02-18T08:37:43.098Z,99.99
2018-02-18T08:38:57.550Z,99.99
2018-02-18T08:40:12.007Z,99.99
2018-02-18T08:41:25.991Z,99.99
2018-02-18T08:42:40.595Z,99.99
2018-02-18T08:43:55.435Z,99.99
2018-02-18T08:45:09.511Z,99.99
2018-02-18T08:46:24.993Z,99.99
2018-02-18T08:47:39.549Z,99.99
2018-02-18T08:48:54.591Z,99.99
2018-02-18T08:50:09.546Z,99.99
2018-02-18T08:51:24.593Z,99.99
2018-02-18T08:52:39.445Z,99.99
2018-02-18T08:53:54.452Z,99.99
2018-02-18T08:55:09.423Z,99.99
2018-02-18T08:56:24.616Z,99.99
2018-02-18T08:57:40.218Z,99.99
2018-02-18T08:58:55.539Z,99.99
2018-02-18T09:00:10.291Z,99.99
2018-02-18T09:01:25.626Z,99.99
2018-02-18T09:02:55.808Z,99.99
2018-02-18T09:04:11.163Z,99.99
2018-02-18T09:05:25.902Z,99.99
2018-02-18T09:06:40.985Z,99.99
2018-02-18T09:07:56.315Z,99.99
2018-02-18T09:09:10.919Z,99.99
2018-02-18T09:10:25.840Z,99.99
2018-02-18T09:11:41.396Z,99.99
2018-02-18T09:12:56.419Z,99.99
2018-02-18T09:14:10.934Z,99.99
2018-02-18T09:15:25.531Z,99.99
2018-02-18T09:16:40.690Z,99.99
2018-02-18T09:17:55.779Z,99.99
2018-02-18T09:19:10.900Z,99.99
2018-02-18T09:20:25.937Z,99.99
2018-02-18T09:21:40.701Z,99.99
2018-02-18T09:22:55.689Z,99.99
2018-02-18T09:24:10.450Z,99.99
2018-02-18T09:25:25.532Z,99.99
2018-02-18T09:26:40.517Z,99.99
2018-02-18T09:27:55.691Z,99.99
2018-02-18T09:29:10.561Z,99.99
2018-02-18T09:30:25.920Z,99.99
2018-02-18T09:31:39.924Z,99.99
2018-02-18T09:32:54.845Z,99.99
2018-02-18T09:34:10.168Z,99.99
2018-02-18T09:35:25.709Z,99.99
2018-02-18T09:36:39.928Z,99.99
2018-02-18T09:37:54.817Z,99.99
2018-02-18T09:39:09.655Z,99.99
2018-02-18T09:40:24.177Z,99.99
2018-02-18T09:41:39.397Z,99.99
2018-02-18T09:42:54.195Z,99.99
2018-02-18T09:44:08.546Z,99.99
2018-02-18T09:45:23.875Z,99.99
2018-02-18T09:46:38.671Z,99.99
2018-02-18T09:47:53.702Z,99.99
2018-02-18T09:49:08.842Z,99.99
2018-02-18T09:50:23.647Z,99.99
2018-02-18T09:51:38.084Z,99.99
2018-02-18T09:52:53.170Z,99.99
2018-02-18T09:54:08.258Z,99.99
2018-02-18T09:55:23.349Z,99.99
2018-02-18T09:56:38.370Z,99.99
2018-02-18T09:57:53.473Z,99.99
2018-02-18T09:59:08.954Z,99.99
2018-02-18T10:00:23.742Z,99.99
2018-02-18T10:01:37.966Z,99.99
2018-02-18T10:02:52.959Z,99.99
2018-02-18T10:04:08.304Z,99.99
2018-02-18T10:05:22.949Z,99.99
2018-02-18T10:06:38.064Z,99.99
2018-02-18T10:07:52.558Z,99.99
2018-02-18T10:09:07.591Z,99.99
2018-02-18T10:10:21.530Z,99.99
2018-02-18T10:11:36.565Z,99.99
2018-02-18T10:12:51.034Z,99.99
2018-02-18T10:14:06.511Z,99.99
2018-02-18T10:15:21.330Z,99.99
2018-02-18T10:16:35.940Z,99.99
2018-02-18T10:17:50.669Z,99.99
2018-02-18T10:19:05.370Z,99.99
2018-02-18T10:20:19.930Z,99.99
2018-02-18T10:21:34.302Z,99.99
2018-02-18T10:22:49.293Z,99.99
2018-02-18T10:24:04.875Z,99.99
2018-02-18T10:25:19.304Z,99.99
2018-02-18T10:26:33.867Z,99.99
2018-02-18T10:27:48.922Z,99.99
2018-02-18T10:29:03.772Z,99.99
2018-02-18T10:30:18.784Z,99.99
2018-02-18T10:31:34.072Z,99.99
2018-02-18T10:32:49.170Z,99.99
2018-02-18T10:34:04.494Z,99.99
2018-02-18T10:35:19.299Z,99.99
2018-02-18T10:36:34.111Z,99.99
2018-02-18T10:37:48.718Z,99.99
2018-02-18T10:39:03.374Z,99.99
2018-02-18T10:40:17.934Z,99.99
2018-02-18T10:41:32.994Z,99.99
2018-02-18T10:42:47.675Z,99.99
2018-02-18T10:44:02.533Z,99.99
2018-02-18T10:45:17.770Z,99.99
2018-02-18T10:46:32.069Z,99.99
2018-02-18T10:47:46.839Z,99.99
2018-02-18T10:49:01.603Z,99.99
2018-02-18T10:50:16.804Z,99.99
2018-02-18T10:51:31.586Z,99.99
2018-02-18T10:52:46.368Z,99.99
2018-02-18T10:54:01.429Z,99.99
2018-02-18T10:55:15.562Z,99.99
2018-02-18T10:56:30.740Z,99.99
2018-02-18T10:57:45.270Z,99.99
2018-02-18T10:59:00.348Z,99.99
2018-02-18T11:00:14.941Z,99.99
2018-02-18T11:01:30.029Z,99.99
2018-02-18T11:02:45.132Z,99.99
2018-02-18T11:04:00.567Z,99.99
2018-02-18T11:05:15.623Z,99.99
2018-02-18T11:06:30.213Z,99.99
2018-02-18T11:07:44.688Z,99.99
2018-02-18T11:08:59.856Z,99.99
2018-02-18T11:10:14.684Z,99.99
2018-02-18T11:11:29.472Z,99.99
2018-02-18T11:12:44.100Z,99.99
2018-02-18T11:13:58.444Z,99.99
2018-02-18T11:15:13.814Z,99.99
2018-02-18T11:16:28.727Z,99.99
2018-02-18T11:17:43.313Z,99.99
2018-02-18T11:18:57.898Z,99.99
2018-02-18T11:20:12.948Z,99.99
2018-02-18T11:21:28.678Z,99.99
2018-02-18T11:22:43.180Z,99.99
2018-02-18T11:23:57.410Z,99.99
2018-02-18T11:25:11.932Z,99.99
2018-02-18T11:26:26.310Z,99.99
2018-02-18T11:27:41.160Z,99.99
2018-02-18T11:28:56.623Z,99.99
2018-02-18T11:30:11.720Z,99.99
2018-02-18T11:31:26.710Z,99.99
2018-02-18T11:32:40.984Z,99.99
2018-02-18T11:33:55.715Z,99.99
2018-02-18T11:35:10.553Z,99.99
2018-02-18T11:36:25.679Z,99.99
2018-02-18T11:37:40.209Z,99.99
2018-02-18T11:38:54.939Z,99.99
2018-02-18T11:40:10.027Z,99.99
2018-02-18T11:41:24.357Z,99.73
2018-02-18T11:42:39.198Z,99.99
2018-02-18T11:43:53.825Z,98.59
2018-02-18T11:45:08.628Z,98.97
2018-02-18T11:46:24.102Z,98.68
2018-02-18T11:47:38.657Z,98.21
2018-02-18T11:48:53.867Z,98.02
2018-02-18T11:50:08.596Z,98.21
2018-02-18T11:51:23.912Z,98.02
2018-02-18T11:52:38.490Z,98.68
2018-02-18T11:53:54.002Z,98.16
2018-02-18T11:55:09.039Z,97.5
2018-02-18T11:56:23.654Z,98.26
2018-02-18T11:57:38.287Z,98.07
2018-02-18T11:58:53.112Z,99.3
2018-02-18T12:00:07.431Z,98.35
2018-02-18T12:01:21.953Z,96.74
2018-02-18T12:02:36.577Z,96.93
2018-02-18T12:03:52.003Z,96.55
2018-02-18T12:05:07.378Z,95.7
2018-02-18T12:06:22.295Z,95.12
2018-02-18T12:07:36.595Z,96.26
2018-02-18T12:08:51.456Z,94.84
2018-02-18T12:10:06.055Z,94.56
2018-02-18T12:11:21.930Z,95.12
2018-02-18T12:12:35.715Z,94.74
2018-02-18T12:13:51.079Z,94.74
2018-02-18T12:15:05.606Z,94.93
2018-02-18T12:16:20.158Z,94.08
2018-02-18T12:17:35.377Z,93.32
2018-02-18T12:18:50.487Z,95.89
2018-02-18T12:20:05.565Z,94.08
2018-02-18T12:21:20.065Z,93.7
2018-02-18T12:22:34.929Z,93.41
2018-02-18T12:23:49.488Z,93.13
2018-02-18T12:25:03.985Z,93.89
2018-02-18T12:26:18.511Z,93.89
2018-02-18T12:27:33.731Z,94.46
2018-02-18T12:28:47.723Z,94.65
2018-02-18T12:30:02.658Z,94.08
2018-02-18T12:31:17.702Z,93.04
2018-02-18T12:32:32.924Z,91.61
2018-02-18T12:33:48.115Z,92.94
2018-02-18T12:35:03.434Z,92.66
2018-02-18T12:36:17.713Z,91.99
2018-02-18T12:37:32.041Z,91.42
2018-02-18T12:38:47.138Z,91.33
2018-02-18T12:40:01.856Z,90.85
2018-02-18T12:41:15.554Z,90.85
2018-02-18T12:42:31.070Z,90.95
2018-02-18T12:43:45.568Z,90.76
2018-02-18T12:44:59.901Z,90.76
2018-02-18T12:46:14.968Z,90.19
2018-02-18T12:47:29.660Z,90.47
2018-02-18T12:48:45.245Z,90.09
2018-02-18T12:50:00.094Z,89.81
2018-02-18T12:51:14.667Z,89.53
2018-02-18T12:52:29.540Z,89.72
2018-02-18T12:53:44.480Z,89.62
2018-02-18T12:54:59.400Z,89.43
2018-02-18T12:56:14.462Z,89.33
2018-02-18T12:57:29.280Z,89.14
2018-02-18T12:58:44.665Z,88.95
2018-02-18T12:59:59.387Z,88.86
2018-02-18T13:01:14.560Z,88.48
2018-02-18T13:02:28.879Z,87.95
2018-02-18T13:03:43.820Z,87.01
2018-02-18T13:04:58.919Z,87.29
2018-02-18T13:06:14.044Z,86.63
2018-02-18T13:07:28.866Z,86.05
2018-02-18T13:08:43.606Z,84.91
2018-02-18T13:13:31.172Z,83.97
2018-02-18T13:14:46.806Z,84.34
2018-02-18T13:16:01.850Z,83.3
2018-02-18T13:17:17.127Z,82.45
2018-02-18T13:18:32.428Z,82.54
2018-02-18T13:19:47.473Z,82.16
2018-02-18T13:21:02.575Z,82.26
2018-02-18T13:22:17.695Z,82.64
2018-02-18T13:23:32.302Z,81.87
2018-02-18T13:24:47.441Z,81.59
2018-02-18T13:26:02.174Z,81.68
2018-02-18T13:27:16.934Z,80.83
2018-02-18T13:28:32.013Z,80.74
2018-02-18T13:29:46.767Z,80.74
2018-02-18T13:31:01.346Z,80.69
2018-02-18T13:32:16.433Z,80.93
2018-02-18T13:33:31.197Z,80.74
2018-02-18T13:34:45.705Z,80.55
2018-02-18T13:36:00.541Z,80.16
2018-02-18T13:37:15.701Z,79.88
2018-02-18T13:38:30.083Z,79.88
2018-02-18T13:40:16.106Z,79.6
2018-02-18T13:41:30.955Z,79.69
2018-02-18T13:42:45.534Z,79.5
2018-02-18T13:44:00.490Z,79.5
2018-02-18T13:45:15.239Z,79.5
2018-02-18T13:46:29.801Z,79.6
2018-02-18T13:47:44.077Z,79.5
2018-02-18T13:48:58.707Z,78.93
2018-02-18T13:50:13.577Z,79.22
2018-02-18T13:51:28.539Z,79.12
2018-02-18T13:52:43.787Z,77.6
2018-02-18T13:53:58.634Z,77.79
2018-02-18T13:55:13.477Z,77.6
2018-02-18T13:56:28.479Z,77.7
2018-02-18T13:57:43.678Z,77.12
2018-02-18T13:58:58.774Z,77.6
2018-02-18T14:00:13.532Z,77.41
2018-02-18T14:01:28.267Z,77.6
2018-02-18T14:02:43.366Z,77.7
2018-02-18T14:03:58.169Z,77.03
2018-02-18T14:05:12.995Z,76.69
2018-02-18T14:06:27.633Z,75.23
2018-02-18T14:07:43.096Z,74.88
2018-02-18T14:08:57.765Z,74.51
2018-02-18T14:10:11.986Z,73.65
2018-02-18T14:11:27.499Z,73.71
2018-02-18T14:12:41.980Z,74.12
2018-02-18T14:13:56.242Z,73.46
2018-02-18T14:15:12.063Z,72.32
2018-02-18T14:16:27.536Z,72.28
2018-02-18T14:17:42.561Z,72.66
2018-02-18T14:18:57.817Z,72.47
2018-02-18T14:20:12.005Z,72.66
2018-02-18T14:21:27.070Z,72.38
2018-02-18T14:22:41.745Z,72.28
2018-02-18T14:23:56.541Z,71.43
2018-02-18T14:25:12.101Z,71.43
2018-02-18T14:26:27.360Z,71.33
2018-02-18T14:27:41.595Z,71.81
2018-02-18T14:28:56.379Z,72.38
2018-02-18T14:30:11.416Z,72
2018-02-18T14:31:26.223Z,72.56
2018-02-18T14:32:40.976Z,72.47
2018-02-18T14:33:55.425Z,72.09
2018-02-18T14:35:10.519Z,71.81
2018-02-18T14:36:25.303Z,71.52
2018-02-18T14:37:39.801Z,71.43
2018-02-18T14:38:54.688Z,71.84
2018-02-18T14:40:09.192Z,71.94
2018-02-18T14:41:23.754Z,71.46
2018-02-18T14:42:38.230Z,72
2018-02-18T14:43:53.218Z,72.22
2018-02-18T14:45:08.142Z,72.22
2018-02-18T14:46:22.634Z,72.89
2018-02-18T14:47:37.515Z,73.04
2018-02-18T14:48:52.330Z,72.95
2018-02-18T14:50:06.353Z,73.23
2018-02-18T14:51:21.720Z,73.52
2018-02-18T14:52:36.222Z,73.52
2018-02-18T14:53:50.437Z,73.8
2018-02-18T14:55:05.214Z,73.99
2018-02-18T14:56:20.624Z,74.27
2018-02-18T14:57:35.235Z,74.27
2018-02-18T14:58:50.182Z,74.08
2018-02-18T15:00:04.454Z,74.56
2018-02-18T15:01:19.658Z,74.66
2018-02-18T15:02:34.240Z,74.37
2018-02-18T15:03:48.857Z,74.47
2018-02-18T15:05:03.811Z,74.08
2018-02-18T15:06:19.086Z,74.47
2018-02-18T15:07:33.604Z,74.47
2018-02-18T15:08:48.709Z,74.37
2018-02-18T15:10:03.508Z,74.85
2018-02-18T15:11:18.404Z,75.32
2018-02-18T15:12:32.910Z,75.89
2018-02-18T15:13:47.917Z,75.99
2018-02-18T15:15:02.748Z,75.04
2018-02-18T15:16:17.386Z,75.32
2018-02-18T15:17:31.980Z,75.42
2018-02-18T15:18:47.252Z,75.23
2018-02-18T15:20:01.986Z,75.23
2018-02-18T15:21:16.567Z,75.13
2018-02-18T15:22:31.618Z,75.32
2018-02-18T15:23:46.424Z,75.7
2018-02-18T15:25:01.522Z,75.79
2018-02-18T15:26:16.511Z,76.08
2018-02-18T15:27:31.297Z,75.7
2018-02-18T15:28:45.539Z,75.89
2018-02-18T15:30:00.674Z,75.23
2018-02-18T15:31:15.288Z,75.42
2018-02-18T15:32:29.563Z,75.13
2018-02-18T15:33:43.786Z,75.6
2018-02-18T15:34:58.537Z,75.7
2018-02-18T15:36:13.166Z,75.23
2018-02-18T15:37:27.780Z,75.13
2018-02-18T15:38:42.609Z,75.6
2018-02-18T15:39:57.179Z,75.7
2018-02-18T15:41:12.273Z,75.6
2018-02-18T15:42:26.922Z,75.7
2018-02-18T15:43:41.905Z,75.89
2018-02-18T15:44:56.898Z,75.32
2018-02-18T15:46:11.676Z,75.89
2018-02-18T15:47:26.604Z,75.7
2018-02-18T15:48:41.341Z,76.08
2018-02-18T15:49:57.208Z,75.99
2018-02-18T15:51:11.726Z,75.89
2018-02-18T15:52:26.501Z,76.18
2018-02-18T15:53:41.128Z,76.37
2018-02-18T15:54:55.900Z,76.71
2018-02-18T15:56:10.940Z,76.84
2018-02-18T15:57:25.834Z,76.75
2018-02-18T15:58:40.638Z,77.22
2018-02-18T15:59:55.366Z,76.93
2018-02-18T16:01:10.275Z,76.9
2018-02-18T16:02:24.796Z,76.99
2018-02-18T16:03:39.869Z,77.56
2018-02-18T16:04:54.466Z,77.09
2018-02-18T16:06:09.236Z,77.66
2018-02-18T16:07:24.022Z,77.94
2018-02-18T16:08:38.666Z,78.13
2018-02-18T16:09:54.058Z,78.13
2018-02-18T16:11:08.731Z,78.32
2018-02-18T16:12:22.818Z,77.94